sensor_id;sensor_type;location;lat;lon;timestamp;P1;durP1;ratioP1;P2;durP2;ratioP2
5762;SDS011;2906;53.282;9.508;2022-11-20T00:00:37;14.63;;;5.72;;
5762;SDS011;2906;53.282;9.508;2022-11-20T00:01:39;18.30;;;6.55;;
5762;SDS011;2906;53.282;9.508;2022-11-20T00:02:41;19.80;;;7.57;;
5762;SDS011;2906;53.282;9.508;2022-11-20T00:03:43;14.00;;;6.43;;
5762;SDS011;2906;53.282;9.508;2022-11-20T00:04:45;17.88;;;6.68;;
5762;SDS011;2906;53.282;9.508;2022-11-20T00:05:47;17.58;;;6.78;;
5762;SDS011;2906;53.282;9.508;2022-11-20T00:06:48;17.58;;;6.80;;
5762;SDS011;2906;53.282;9.508;2022-11-20T00:07:51;14.40;;;6.90;;
5762;SDS011;2906;53.282;9.508;2022-11-20T00:08:53;14.57;;;6.78;;
5762;SDS011;2906;53.282;9.508;2022-11-20T00:09:56;20.35;;;6.60;;
5762;SDS011;2906;53.282;9.508;2022-11-20T00:11:01;19.33;;;7.15;;
5762;SDS011;2906;53.282;9.508;2022-11-20T00:12:04;21.52;;;6.38;;
5762;SDS011;2906;53.282;9.508;2022-11-20T00:13:05;16.92;;;6.45;;
5762;SDS011;2906;53.282;9.508;2022-11-20T00:14:08;30.42;;;7.22;;
5762;SDS011;2906;53.282;9.508;2022-11-20T00:15:11;17.80;;;6.45;;
5762;SDS011;2906;53.282;9.508;2022-11-20T00:16:13;16.77;;;7.30;;
5762;SDS011;2906;53.282;9.508;2022-11-20T00:17:16;16.92;;;7.53;;
5762;SDS011;2906;53.282;9.508;2022-11-20T00:18:17;17.02;;;6.82;;
5762;SDS011;2906;53.282;9.508;2022-11-20T00:19:19;15.55;;;6.70;;
5762;SDS011;2906;53.282;9.508;2022-11-20T00:20:20;17.33;;;7.45;;
5762;SDS011;2906;53.282;9.508;2022-11-20T00:21:23;14.63;;;6.47;;
5762;SDS011;2906;53.282;9.508;2022-11-20T00:22:25;14.52;;;6.28;;
5762;SDS011;2906;53.282;9.508;2022-11-20T00:23:27;20.27;;;6.93;;
5762;SDS011;2906;53.282;9.508;2022-11-20T00:24:29;16.52;;;6.45;;
5762;SDS011;2906;53.282;9.508;2022-11-20T00:25:31;18.13;;;7.03;;
5762;SDS011;2906;53.282;9.508;2022-11-20T00:26:36;22.52;;;7.90;;
5762;SDS011;2906;53.282;9.508;2022-11-20T00:27:38;12.65;;;5.55;;
5762;SDS011;2906;53.282;9.508;2022-11-20T00:28:40;15.90;;;6.63;;
5762;SDS011;2906;53.282;9.508;2022-11-20T00:29:42;13.55;;;5.93;;
5762;SDS011;2906;53.282;9.508;2022-11-20T00:30:44;14.10;;;6.50;;
5762;SDS011;2906;53.282;9.508;2022-11-20T00:31:46;14.07;;;5.80;;
5762;SDS011;2906;53.282;9.508;2022-11-20T00:32:47;15.00;;;6.60;;
5762;SDS011;2906;53.282;9.508;2022-11-20T00:33:50;13.20;;;6.38;;
5762;SDS011;2906;53.282;9.508;2022-11-20T00:34:51;16.08;;;6.25;;
5762;SDS011;2906;53.282;9.508;2022-11-20T00:35:53;14.65;;;6.85;;
5762;SDS011;2906;53.282;9.508;2022-11-20T00:36:55;12.55;;;5.88;;
5762;SDS011;2906;53.282;9.508;2022-11-20T00:37:57;15.30;;;6.35;;
5762;SDS011;2906;53.282;9.508;2022-11-20T00:38:58;15.23;;;6.95;;
5762;SDS011;2906;53.282;9.508;2022-11-20T00:40:01;14.05;;;6.75;;
5762;SDS011;2906;53.282;9.508;2022-11-20T00:41:03;15.90;;;6.60;;
5762;SDS011;2906;53.282;9.508;2022-11-20T00:42:06;13.90;;;6.60;;
5762;SDS011;2906;53.282;9.508;2022-11-20T00:43:08;15.68;;;7.28;;
5762;SDS011;2906;53.282;9.508;2022-11-20T00:44:10;15.65;;;6.90;;
5762;SDS011;2906;53.282;9.508;2022-11-20T00:45:11;16.63;;;6.90;;
5762;SDS011;2906;53.282;9.508;2022-11-20T00:46:14;14.77;;;7.03;;
5762;SDS011;2906;53.282;9.508;2022-11-20T00:47:16;15.73;;;6.80;;
5762;SDS011;2906;53.282;9.508;2022-11-20T00:48:18;13.88;;;6.78;;
5762;SDS011;2906;53.282;9.508;2022-11-20T00:49:20;14.98;;;6.60;;
5762;SDS011;2906;53.282;9.508;2022-11-20T00:50:22;18.27;;;7.25;;
5762;SDS011;2906;53.282;9.508;2022-11-20T00:51:24;15.10;;;6.35;;
5762;SDS011;2906;53.282;9.508;2022-11-20T00:52:27;18.52;;;7.05;;
5762;SDS011;2906;53.282;9.508;2022-11-20T00:53:28;14.95;;;7.40;;
5762;SDS011;2906;53.282;9.508;2022-11-20T00:54:31;14.15;;;6.38;;
5762;SDS011;2906;53.282;9.508;2022-11-20T00:55:32;17.35;;;7.10;;
5762;SDS011;2906;53.282;9.508;2022-11-20T00:56:35;16.55;;;6.72;;
5762;SDS011;2906;53.282;9.508;2022-11-20T00:57:37;15.75;;;6.90;;
5762;SDS011;2906;53.282;9.508;2022-11-20T00:58:40;21.40;;;7.47;;
5762;SDS011;2906;53.282;9.508;2022-11-20T00:59:42;15.23;;;7.72;;
5762;SDS011;2906;53.282;9.508;2022-11-20T01:00:44;17.70;;;7.80;;
5762;SDS011;2906;53.282;9.508;2022-11-20T01:01:45;18.55;;;8.43;;
5762;SDS011;2906;53.282;9.508;2022-11-20T01:02:48;16.20;;;6.82;;
5762;SDS011;2906;53.282;9.508;2022-11-20T01:03:49;17.77;;;7.40;;
5762;SDS011;2906;53.282;9.508;2022-11-20T01:04:52;19.90;;;8.20;;
5762;SDS011;2906;53.282;9.508;2022-11-20T01:05:53;17.38;;;7.25;;
5762;SDS011;2906;53.282;9.508;2022-11-20T01:06:56;17.50;;;7.32;;
5762;SDS011;2906;53.282;9.508;2022-11-20T01:07:58;17.25;;;7.72;;
5762;SDS011;2906;53.282;9.508;2022-11-20T01:08:59;19.95;;;7.85;;
5762;SDS011;2906;53.282;9.508;2022-11-20T01:10:02;18.45;;;7.30;;
5762;SDS011;2906;53.282;9.508;2022-11-20T01:11:04;19.75;;;8.00;;
5762;SDS011;2906;53.282;9.508;2022-11-20T01:12:07;21.58;;;7.82;;
5762;SDS011;2906;53.282;9.508;2022-11-20T01:13:09;16.92;;;8.15;;
5762;SDS011;2906;53.282;9.508;2022-11-20T01:14:26;21.05;;;7.53;;
5762;SDS011;2906;53.282;9.508;2022-11-20T01:15:28;18.80;;;8.25;;
5762;SDS011;2906;53.282;9.508;2022-11-20T01:16:30;16.25;;;7.45;;
5762;SDS011;2906;53.282;9.508;2022-11-20T01:17:32;19.90;;;8.20;;
5762;SDS011;2906;53.282;9.508;2022-11-20T01:18:34;15.93;;;7.43;;
5762;SDS011;2906;53.282;9.508;2022-11-20T01:19:37;19.58;;;7.70;;
5762;SDS011;2906;53.282;9.508;2022-11-20T01:20:38;19.92;;;7.28;;
5762;SDS011;2906;53.282;9.508;2022-11-20T01:21:41;15.00;;;6.00;;
5762;SDS011;2906;53.282;9.508;2022-11-20T01:22:44;20.05;;;7.70;;
5762;SDS011;2906;53.282;9.508;2022-11-20T01:23:45;17.60;;;7.60;;
5762;SDS011;2906;53.282;9.508;2022-11-20T01:24:47;16.08;;;7.47;;
5762;SDS011;2906;53.282;9.508;2022-11-20T01:25:49;16.25;;;6.90;;
5762;SDS011;2906;53.282;9.508;2022-11-20T01:26:51;18.08;;;7.20;;
5762;SDS011;2906;53.282;9.508;2022-11-20T01:27:54;16.15;;;7.25;;
5762;SDS011;2906;53.282;9.508;2022-11-20T01:28:56;17.00;;;7.57;;
5762;SDS011;2906;53.282;9.508;2022-11-20T01:29:59;16.80;;;7.90;;
5762;SDS011;2906;53.282;9.508;2022-11-20T01:31:01;18.63;;;7.40;;
5762;SDS011;2906;53.282;9.508;2022-11-20T01:32:03;16.25;;;7.05;;
5762;SDS011;2906;53.282;9.508;2022-11-20T01:33:06;16.67;;;7.55;;
5762;SDS011;2906;53.282;9.508;2022-11-20T01:34:09;19.95;;;7.15;;
5762;SDS011;2906;53.282;9.508;2022-11-20T01:35:12;17.67;;;7.40;;
5762;SDS011;2906;53.282;9.508;2022-11-20T01:36:14;19.35;;;8.05;;
5762;SDS011;2906;53.282;9.508;2022-11-20T01:37:17;17.92;;;7.60;;
5762;SDS011;2906;53.282;9.508;2022-11-20T01:38:18;18.52;;;7.55;;
5762;SDS011;2906;53.282;9.508;2022-11-20T01:39:23;14.90;;;6.70;;
5762;SDS011;2906;53.282;9.508;2022-11-20T01:40:25;17.08;;;6.93;;
5762;SDS011;2906;53.282;9.508;2022-11-20T01:41:27;14.70;;;7.32;;
5762;SDS011;2906;53.282;9.508;2022-11-20T01:42:45;18.13;;;7.00;;
5762;SDS011;2906;53.282;9.508;2022-11-20T01:44:03;16.27;;;6.95;;
5762;SDS011;2906;53.282;9.508;2022-11-20T01:46:21;21.70;;;9.13;;
5762;SDS011;2906;53.282;9.508;2022-11-20T01:47:25;19.65;;;8.02;;
5762;SDS011;2906;53.282;9.508;2022-11-20T01:48:30;19.77;;;7.45;;
5762;SDS011;2906;53.282;9.508;2022-11-20T01:49:34;24.83;;;8.27;;
5762;SDS011;2906;53.282;9.508;2022-11-20T01:50:39;20.02;;;8.32;;
5762;SDS011;2906;53.282;9.508;2022-11-20T01:51:41;18.33;;;8.13;;
5762;SDS011;2906;53.282;9.508;2022-11-20T01:52:45;16.63;;;7.60;;
5762;SDS011;2906;53.282;9.508;2022-11-20T01:53:48;19.30;;;7.85;;
5762;SDS011;2906;53.282;9.508;2022-11-20T01:54:51;15.25;;;7.55;;
5762;SDS011;2906;53.282;9.508;2022-11-20T01:55:54;16.42;;;6.97;;
5762;SDS011;2906;53.282;9.508;2022-11-20T01:56:57;19.98;;;7.80;;
5762;SDS011;2906;53.282;9.508;2022-11-20T01:58:00;19.20;;;7.45;;
5762;SDS011;2906;53.282;9.508;2022-11-20T01:59:05;17.95;;;8.15;;
5762;SDS011;2906;53.282;9.508;2022-11-20T02:00:10;16.48;;;7.88;;
5762;SDS011;2906;53.282;9.508;2022-11-20T02:01:12;18.02;;;7.80;;
5762;SDS011;2906;53.282;9.508;2022-11-20T02:02:15;19.88;;;8.30;;
5762;SDS011;2906;53.282;9.508;2022-11-20T02:03:17;17.38;;;8.00;;
5762;SDS011;2906;53.282;9.508;2022-11-20T02:04:20;18.40;;;7.90;;
5762;SDS011;2906;53.282;9.508;2022-11-20T02:05:23;23.92;;;8.07;;
5762;SDS011;2906;53.282;9.508;2022-11-20T02:06:27;22.95;;;8.05;;
5762;SDS011;2906;53.282;9.508;2022-11-20T02:07:30;15.00;;;7.30;;
5762;SDS011;2906;53.282;9.508;2022-11-20T02:08:33;17.65;;;7.40;;
5762;SDS011;2906;53.282;9.508;2022-11-20T02:09:35;22.48;;;7.85;;
5762;SDS011;2906;53.282;9.508;2022-11-20T02:10:37;15.15;;;7.10;;
5762;SDS011;2906;53.282;9.508;2022-11-20T02:11:38;16.10;;;7.38;;
5762;SDS011;2906;53.282;9.508;2022-11-20T02:12:41;15.85;;;6.97;;
5762;SDS011;2906;53.282;9.508;2022-11-20T02:13:57;19.15;;;7.95;;
5762;SDS011;2906;53.282;9.508;2022-11-20T02:15:00;23.60;;;8.18;;
5762;SDS011;2906;53.282;9.508;2022-11-20T02:16:02;16.33;;;6.68;;
5762;SDS011;2906;53.282;9.508;2022-11-20T02:17:05;21.98;;;8.38;;
5762;SDS011;2906;53.282;9.508;2022-11-20T02:18:06;18.05;;;8.18;;
5762;SDS011;2906;53.282;9.508;2022-11-20T02:19:09;17.15;;;7.65;;
5762;SDS011;2906;53.282;9.508;2022-11-20T02:20:14;18.83;;;8.27;;
5762;SDS011;2906;53.282;9.508;2022-11-20T02:21:20;16.02;;;7.72;;
5762;SDS011;2906;53.282;9.508;2022-11-20T02:22:23;19.48;;;8.68;;
5762;SDS011;2906;53.282;9.508;2022-11-20T02:23:28;19.27;;;8.75;;
5762;SDS011;2906;53.282;9.508;2022-11-20T02:24:34;16.95;;;7.72;;
5762;SDS011;2906;53.282;9.508;2022-11-20T02:25:36;18.63;;;8.25;;
5762;SDS011;2906;53.282;9.508;2022-11-20T02:26:40;22.17;;;8.25;;
5762;SDS011;2906;53.282;9.508;2022-11-20T02:27:43;17.92;;;8.80;;
5762;SDS011;2906;53.282;9.508;2022-11-20T02:28:44;19.77;;;8.68;;
5762;SDS011;2906;53.282;9.508;2022-11-20T02:29:47;20.40;;;7.65;;
5762;SDS011;2906;53.282;9.508;2022-11-20T02:30:50;23.13;;;8.95;;
5762;SDS011;2906;53.282;9.508;2022-11-20T02:31:53;21.58;;;7.88;;
5762;SDS011;2906;53.282;9.508;2022-11-20T02:32:55;30.75;;;8.20;;
5762;SDS011;2906;53.282;9.508;2022-11-20T02:33:57;21.17;;;8.60;;
5762;SDS011;2906;53.282;9.508;2022-11-20T02:35:05;18.00;;;8.55;;
5762;SDS011;2906;53.282;9.508;2022-11-20T02:36:08;23.92;;;8.60;;
5762;SDS011;2906;53.282;9.508;2022-11-20T02:37:11;17.88;;;8.13;;
5762;SDS011;2906;53.282;9.508;2022-11-20T02:38:14;18.90;;;7.95;;
5762;SDS011;2906;53.282;9.508;2022-11-20T02:39:15;17.20;;;8.10;;
5762;SDS011;2906;53.282;9.508;2022-11-20T02:40:19;20.70;;;8.88;;
5762;SDS011;2906;53.282;9.508;2022-11-20T02:41:20;18.33;;;8.38;;
5762;SDS011;2906;53.282;9.508;2022-11-20T02:42:23;17.10;;;8.60;;
5762;SDS011;2906;53.282;9.508;2022-11-20T02:43:25;20.83;;;8.40;;
5762;SDS011;2906;53.282;9.508;2022-11-20T02:44:26;19.33;;;8.90;;
5762;SDS011;2906;53.282;9.508;2022-11-20T02:45:29;20.73;;;9.00;;
5762;SDS011;2906;53.282;9.508;2022-11-20T02:46:30;21.00;;;9.02;;
5762;SDS011;2906;53.282;9.508;2022-11-20T02:47:33;21.13;;;9.13;;
5762;SDS011;2906;53.282;9.508;2022-11-20T02:48:34;21.08;;;8.85;;
5762;SDS011;2906;53.282;9.508;2022-11-20T02:49:36;20.20;;;9.73;;
5762;SDS011;2906;53.282;9.508;2022-11-20T02:50:38;21.90;;;9.52;;
5762;SDS011;2906;53.282;9.508;2022-11-20T02:51:40;23.85;;;8.32;;
5762;SDS011;2906;53.282;9.508;2022-11-20T02:52:42;21.85;;;9.48;;
5762;SDS011;2906;53.282;9.508;2022-11-20T02:53:44;19.05;;;9.35;;
5762;SDS011;2906;53.282;9.508;2022-11-20T02:54:46;22.17;;;9.35;;
5762;SDS011;2906;53.282;9.508;2022-11-20T02:55:49;17.98;;;8.23;;
5762;SDS011;2906;53.282;9.508;2022-11-20T02:56:50;20.55;;;8.82;;
5762;SDS011;2906;53.282;9.508;2022-11-20T02:57:53;20.23;;;8.93;;
5762;SDS011;2906;53.282;9.508;2022-11-20T02:58:54;20.42;;;9.60;;
5762;SDS011;2906;53.282;9.508;2022-11-20T02:59:56;19.02;;;8.80;;
5762;SDS011;2906;53.282;9.508;2022-11-20T03:00:58;20.77;;;9.10;;
5762;SDS011;2906;53.282;9.508;2022-11-20T03:02:00;21.48;;;9.80;;
5762;SDS011;2906;53.282;9.508;2022-11-20T03:03:01;22.42;;;9.35;;
5762;SDS011;2906;53.282;9.508;2022-11-20T03:04:04;18.98;;;9.68;;
5762;SDS011;2906;53.282;9.508;2022-11-20T03:05:05;20.85;;;9.20;;
5762;SDS011;2906;53.282;9.508;2022-11-20T03:06:08;21.63;;;9.63;;
5762;SDS011;2906;53.282;9.508;2022-11-20T03:07:09;21.75;;;9.45;;
5762;SDS011;2906;53.282;9.508;2022-11-20T03:08:12;21.30;;;9.07;;
5762;SDS011;2906;53.282;9.508;2022-11-20T03:09:13;19.98;;;9.93;;
5762;SDS011;2906;53.282;9.508;2022-11-20T03:10:15;23.27;;;9.23;;
5762;SDS011;2906;53.282;9.508;2022-11-20T03:11:18;25.10;;;11.38;;
5762;SDS011;2906;53.282;9.508;2022-11-20T03:12:20;20.33;;;9.68;;
5762;SDS011;2906;53.282;9.508;2022-11-20T03:13:22;20.80;;;10.30;;
5762;SDS011;2906;53.282;9.508;2022-11-20T03:14:24;21.67;;;10.35;;
5762;SDS011;2906;53.282;9.508;2022-11-20T03:15:25;20.50;;;10.32;;
5762;SDS011;2906;53.282;9.508;2022-11-20T03:16:28;22.90;;;10.68;;
5762;SDS011;2906;53.282;9.508;2022-11-20T03:17:29;22.42;;;10.05;;
5762;SDS011;2906;53.282;9.508;2022-11-20T03:18:31;21.95;;;9.60;;
5762;SDS011;2906;53.282;9.508;2022-11-20T03:19:34;24.90;;;10.43;;
5762;SDS011;2906;53.282;9.508;2022-11-20T03:20:36;24.92;;;11.73;;
5762;SDS011;2906;53.282;9.508;2022-11-20T03:21:37;24.05;;;11.10;;
5762;SDS011;2906;53.282;9.508;2022-11-20T03:22:40;22.15;;;10.13;;
5762;SDS011;2906;53.282;9.508;2022-11-20T03:23:41;22.38;;;10.07;;
5762;SDS011;2906;53.282;9.508;2022-11-20T03:24:43;23.85;;;9.60;;
5762;SDS011;2906;53.282;9.508;2022-11-20T03:25:45;24.75;;;11.75;;
5762;SDS011;2906;53.282;9.508;2022-11-20T03:26:48;20.77;;;10.32;;
5762;SDS011;2906;53.282;9.508;2022-11-20T03:27:50;22.73;;;10.50;;
5762;SDS011;2906;53.282;9.508;2022-11-20T03:28:53;24.27;;;11.15;;
5762;SDS011;2906;53.282;9.508;2022-11-20T03:29:55;23.55;;;11.55;;
5762;SDS011;2906;53.282;9.508;2022-11-20T03:30:57;20.17;;;10.15;;
5762;SDS011;2906;53.282;9.508;2022-11-20T03:31:58;22.00;;;10.90;;
5762;SDS011;2906;53.282;9.508;2022-11-20T03:33:01;26.15;;;10.95;;
5762;SDS011;2906;53.282;9.508;2022-11-20T03:34:02;26.25;;;10.25;;
5762;SDS011;2906;53.282;9.508;2022-11-20T03:35:05;26.90;;;11.07;;
5762;SDS011;2906;53.282;9.508;2022-11-20T03:36:07;26.80;;;11.93;;
5762;SDS011;2906;53.282;9.508;2022-11-20T03:37:10;22.30;;;11.63;;
5762;SDS011;2906;53.282;9.508;2022-11-20T03:38:12;32.55;;;12.27;;
5762;SDS011;2906;53.282;9.508;2022-11-20T03:39:14;25.15;;;11.98;;
5762;SDS011;2906;53.282;9.508;2022-11-20T03:40:15;27.10;;;11.15;;
5762;SDS011;2906;53.282;9.508;2022-11-20T03:41:18;23.98;;;12.20;;
5762;SDS011;2906;53.282;9.508;2022-11-20T03:42:21;24.90;;;11.90;;
5762;SDS011;2906;53.282;9.508;2022-11-20T03:43:37;24.63;;;11.52;;
5762;SDS011;2906;53.282;9.508;2022-11-20T03:44:40;24.75;;;11.07;;
5762;SDS011;2906;53.282;9.508;2022-11-20T03:45:41;23.80;;;12.13;;
5762;SDS011;2906;53.282;9.508;2022-11-20T03:46:43;23.83;;;11.75;;
5762;SDS011;2906;53.282;9.508;2022-11-20T03:47:45;25.65;;;11.93;;
5762;SDS011;2906;53.282;9.508;2022-11-20T03:48:47;29.05;;;13.15;;
5762;SDS011;2906;53.282;9.508;2022-11-20T03:49:49;23.33;;;11.20;;
5762;SDS011;2906;53.282;9.508;2022-11-20T03:50:51;26.08;;;12.63;;
5762;SDS011;2906;53.282;9.508;2022-11-20T03:51:53;26.13;;;12.40;;
5762;SDS011;2906;53.282;9.508;2022-11-20T03:52:55;23.90;;;12.13;;
5762;SDS011;2906;53.282;9.508;2022-11-20T03:53:57;32.35;;;12.10;;
5762;SDS011;2906;53.282;9.508;2022-11-20T03:55:00;24.10;;;12.38;;
5762;SDS011;2906;53.282;9.508;2022-11-20T03:56:01;30.50;;;13.57;;
5762;SDS011;2906;53.282;9.508;2022-11-20T03:57:03;29.40;;;13.10;;
5762;SDS011;2906;53.282;9.508;2022-11-20T03:58:06;27.52;;;12.75;;
5762;SDS011;2906;53.282;9.508;2022-11-20T03:59:09;25.40;;;12.02;;
5762;SDS011;2906;53.282;9.508;2022-11-20T04:00:12;25.55;;;13.20;;
5762;SDS011;2906;53.282;9.508;2022-11-20T04:01:15;24.73;;;12.55;;
5762;SDS011;2906;53.282;9.508;2022-11-20T04:02:17;26.52;;;12.90;;
5762;SDS011;2906;53.282;9.508;2022-11-20T04:03:19;27.52;;;12.57;;
5762;SDS011;2906;53.282;9.508;2022-11-20T04:04:21;26.00;;;12.88;;
5762;SDS011;2906;53.282;9.508;2022-11-20T04:05:23;31.55;;;13.43;;
5762;SDS011;2906;53.282;9.508;2022-11-20T04:06:26;26.05;;;13.38;;
5762;SDS011;2906;53.282;9.508;2022-11-20T04:07:27;25.35;;;12.35;;
5762;SDS011;2906;53.282;9.508;2022-11-20T04:08:29;24.73;;;12.95;;
5762;SDS011;2906;53.282;9.508;2022-11-20T04:09:31;28.42;;;13.98;;
5762;SDS011;2906;53.282;9.508;2022-11-20T04:10:33;24.60;;;12.13;;
5762;SDS011;2906;53.282;9.508;2022-11-20T04:11:35;32.95;;;12.55;;
5762;SDS011;2906;53.282;9.508;2022-11-20T04:12:38;27.95;;;13.82;;
5762;SDS011;2906;53.282;9.508;2022-11-20T04:13:41;27.50;;;12.98;;
5762;SDS011;2906;53.282;9.508;2022-11-20T04:14:43;32.15;;;13.95;;
5762;SDS011;2906;53.282;9.508;2022-11-20T04:15:44;27.88;;;13.18;;
5762;SDS011;2906;53.282;9.508;2022-11-20T04:16:47;34.10;;;13.73;;
5762;SDS011;2906;53.282;9.508;2022-11-20T04:17:48;26.67;;;13.00;;
5762;SDS011;2906;53.282;9.508;2022-11-20T04:18:51;31.38;;;14.02;;
5762;SDS011;2906;53.282;9.508;2022-11-20T04:19:53;27.58;;;12.27;;
5762;SDS011;2906;53.282;9.508;2022-11-20T04:20:56;29.88;;;13.52;;
5762;SDS011;2906;53.282;9.508;2022-11-20T04:21:57;31.15;;;12.85;;
5762;SDS011;2906;53.282;9.508;2022-11-20T04:22:59;28.70;;;13.32;;
5762;SDS011;2906;53.282;9.508;2022-11-20T04:24:01;28.48;;;13.55;;
5762;SDS011;2906;53.282;9.508;2022-11-20T04:25:03;25.30;;;12.45;;
5762;SDS011;2906;53.282;9.508;2022-11-20T04:26:05;34.50;;;14.07;;
5762;SDS011;2906;53.282;9.508;2022-11-20T04:27:08;25.05;;;12.95;;
5762;SDS011;2906;53.282;9.508;2022-11-20T04:28:10;27.58;;;13.38;;
5762;SDS011;2906;53.282;9.508;2022-11-20T04:29:13;26.25;;;12.43;;
5762;SDS011;2906;53.282;9.508;2022-11-20T04:30:15;29.73;;;14.00;;
5762;SDS011;2906;53.282;9.508;2022-11-20T04:31:18;31.95;;;13.73;;
5762;SDS011;2906;53.282;9.508;2022-11-20T04:32:19;26.80;;;14.07;;
5762;SDS011;2906;53.282;9.508;2022-11-20T04:33:22;30.80;;;12.50;;
5762;SDS011;2906;53.282;9.508;2022-11-20T04:34:23;27.88;;;14.00;;
5762;SDS011;2906;53.282;9.508;2022-11-20T04:35:25;28.98;;;13.88;;
5762;SDS011;2906;53.282;9.508;2022-11-20T04:36:27;31.95;;;12.77;;
5762;SDS011;2906;53.282;9.508;2022-11-20T04:37:30;31.40;;;14.15;;
5762;SDS011;2906;53.282;9.508;2022-11-20T04:38:31;30.13;;;13.77;;
5762;SDS011;2906;53.282;9.508;2022-11-20T04:39:33;29.42;;;13.80;;
5762;SDS011;2906;53.282;9.508;2022-11-20T04:40:35;27.27;;;13.13;;
5762;SDS011;2906;53.282;9.508;2022-11-20T04:41:37;27.50;;;13.02;;
5762;SDS011;2906;53.282;9.508;2022-11-20T04:42:38;24.67;;;12.05;;
5762;SDS011;2906;53.282;9.508;2022-11-20T04:43:40;29.23;;;14.23;;
5762;SDS011;2906;53.282;9.508;2022-11-20T04:44:43;25.55;;;12.95;;
5762;SDS011;2906;53.282;9.508;2022-11-20T04:45:49;28.80;;;14.18;;
5762;SDS011;2906;53.282;9.508;2022-11-20T04:46:51;28.95;;;12.52;;
5762;SDS011;2906;53.282;9.508;2022-11-20T04:47:54;25.48;;;12.70;;
5762;SDS011;2906;53.282;9.508;2022-11-20T04:48:55;25.40;;;13.20;;
5762;SDS011;2906;53.282;9.508;2022-11-20T04:49:57;32.38;;;13.05;;
5762;SDS011;2906;53.282;9.508;2022-11-20T04:51:02;27.90;;;13.45;;
5762;SDS011;2906;53.282;9.508;2022-11-20T04:52:04;27.13;;;13.30;;
5762;SDS011;2906;53.282;9.508;2022-11-20T04:53:06;26.58;;;12.77;;
5762;SDS011;2906;53.282;9.508;2022-11-20T04:54:08;26.75;;;13.10;;
5762;SDS011;2906;53.282;9.508;2022-11-20T04:55:09;26.60;;;14.07;;
5762;SDS011;2906;53.282;9.508;2022-11-20T04:56:12;25.50;;;13.65;;
5762;SDS011;2906;53.282;9.508;2022-11-20T04:57:14;31.48;;;12.85;;
5762;SDS011;2906;53.282;9.508;2022-11-20T04:58:16;28.55;;;13.82;;
5762;SDS011;2906;53.282;9.508;2022-11-20T04:59:18;29.60;;;13.82;;
5762;SDS011;2906;53.282;9.508;2022-11-20T05:00:21;32.20;;;13.65;;
5762;SDS011;2906;53.282;9.508;2022-11-20T05:01:23;25.85;;;12.80;;
5762;SDS011;2906;53.282;9.508;2022-11-20T05:02:26;29.27;;;12.98;;
5762;SDS011;2906;53.282;9.508;2022-11-20T05:03:27;30.08;;;14.05;;
5762;SDS011;2906;53.282;9.508;2022-11-20T05:04:30;28.40;;;14.38;;
5762;SDS011;2906;53.282;9.508;2022-11-20T05:05:31;28.48;;;13.52;;
5762;SDS011;2906;53.282;9.508;2022-11-20T05:06:35;38.47;;;13.57;;
5762;SDS011;2906;53.282;9.508;2022-11-20T05:07:36;25.88;;;13.30;;
5762;SDS011;2906;53.282;9.508;2022-11-20T05:08:38;31.83;;;13.55;;
5762;SDS011;2906;53.282;9.508;2022-11-20T05:09:40;27.67;;;12.70;;
5762;SDS011;2906;53.282;9.508;2022-11-20T05:10:42;27.85;;;13.30;;
5762;SDS011;2906;53.282;9.508;2022-11-20T05:11:43;28.90;;;14.55;;
5762;SDS011;2906;53.282;9.508;2022-11-20T05:12:46;27.05;;;13.55;;
5762;SDS011;2906;53.282;9.508;2022-11-20T05:13:47;28.70;;;13.45;;
5762;SDS011;2906;53.282;9.508;2022-11-20T05:14:50;26.15;;;13.02;;
5762;SDS011;2906;53.282;9.508;2022-11-20T05:15:52;26.33;;;13.10;;
5762;SDS011;2906;53.282;9.508;2022-11-20T05:16:54;25.15;;;13.38;;
5762;SDS011;2906;53.282;9.508;2022-11-20T05:17:56;29.90;;;13.27;;
5762;SDS011;2906;53.282;9.508;2022-11-20T05:18:58;31.65;;;14.25;;
5762;SDS011;2906;53.282;9.508;2022-11-20T05:19:59;28.00;;;14.45;;
5762;SDS011;2906;53.282;9.508;2022-11-20T05:21:02;33.08;;;14.05;;
5762;SDS011;2906;53.282;9.508;2022-11-20T05:22:03;26.50;;;13.77;;
5762;SDS011;2906;53.282;9.508;2022-11-20T05:23:06;29.95;;;14.48;;
5762;SDS011;2906;53.282;9.508;2022-11-20T05:24:07;27.67;;;13.35;;
5762;SDS011;2906;53.282;9.508;2022-11-20T05:25:10;34.72;;;13.90;;
5762;SDS011;2906;53.282;9.508;2022-11-20T05:26:12;31.60;;;14.23;;
5762;SDS011;2906;53.282;9.508;2022-11-20T05:27:15;31.83;;;14.43;;
5762;SDS011;2906;53.282;9.508;2022-11-20T05:28:16;28.95;;;14.52;;
5762;SDS011;2906;53.282;9.508;2022-11-20T05:29:18;27.65;;;14.23;;
5762;SDS011;2906;53.282;9.508;2022-11-20T05:30:20;32.47;;;15.18;;
5762;SDS011;2906;53.282;9.508;2022-11-20T05:31:24;29.40;;;14.32;;
5762;SDS011;2906;53.282;9.508;2022-11-20T05:32:25;27.15;;;13.85;;
5762;SDS011;2906;53.282;9.508;2022-11-20T05:33:28;31.10;;;14.57;;
5762;SDS011;2906;53.282;9.508;2022-11-20T05:34:29;27.08;;;14.02;;
5762;SDS011;2906;53.282;9.508;2022-11-20T05:35:31;28.90;;;13.77;;
5762;SDS011;2906;53.282;9.508;2022-11-20T05:36:33;30.40;;;14.20;;
5762;SDS011;2906;53.282;9.508;2022-11-20T05:37:35;31.67;;;14.82;;
5762;SDS011;2906;53.282;9.508;2022-11-20T05:38:37;28.42;;;14.10;;
5762;SDS011;2906;53.282;9.508;2022-11-20T05:39:39;32.88;;;14.25;;
5762;SDS011;2906;53.282;9.508;2022-11-20T05:40:40;30.48;;;14.35;;
5762;SDS011;2906;53.282;9.508;2022-11-20T05:41:43;28.90;;;14.65;;
5762;SDS011;2906;53.282;9.508;2022-11-20T05:42:45;28.88;;;14.13;;
5762;SDS011;2906;53.282;9.508;2022-11-20T05:43:47;28.55;;;13.93;;
5762;SDS011;2906;53.282;9.508;2022-11-20T05:44:49;30.42;;;13.95;;
5762;SDS011;2906;53.282;9.508;2022-11-20T05:45:51;37.28;;;15.48;;
5762;SDS011;2906;53.282;9.508;2022-11-20T05:46:55;32.95;;;15.98;;
5762;SDS011;2906;53.282;9.508;2022-11-20T05:47:57;30.30;;;14.25;;
5762;SDS011;2906;53.282;9.508;2022-11-20T05:49:00;30.45;;;15.40;;
5762;SDS011;2906;53.282;9.508;2022-11-20T05:50:02;31.08;;;14.38;;
5762;SDS011;2906;53.282;9.508;2022-11-20T05:51:04;28.23;;;14.60;;
5762;SDS011;2906;53.282;9.508;2022-11-20T05:52:07;30.92;;;15.45;;
5762;SDS011;2906;53.282;9.508;2022-11-20T05:53:08;29.92;;;14.30;;
5762;SDS011;2906;53.282;9.508;2022-11-20T05:54:11;33.33;;;15.32;;
5762;SDS011;2906;53.282;9.508;2022-11-20T05:55:13;32.10;;;15.63;;
5762;SDS011;2906;53.282;9.508;2022-11-20T05:56:16;30.80;;;15.50;;
5762;SDS011;2906;53.282;9.508;2022-11-20T05:57:17;30.80;;;14.95;;
5762;SDS011;2906;53.282;9.508;2022-11-20T05:58:19;33.40;;;15.57;;
5762;SDS011;2906;53.282;9.508;2022-11-20T05:59:21;29.42;;;14.82;;
5762;SDS011;2906;53.282;9.508;2022-11-20T06:00:23;33.88;;;15.00;;
5762;SDS011;2906;53.282;9.508;2022-11-20T06:01:25;27.38;;;14.48;;
5762;SDS011;2906;53.282;9.508;2022-11-20T06:02:29;29.02;;;14.68;;
5762;SDS011;2906;53.282;9.508;2022-11-20T06:03:30;30.13;;;14.38;;
5762;SDS011;2906;53.282;9.508;2022-11-20T06:04:33;32.60;;;15.43;;
5762;SDS011;2906;53.282;9.508;2022-11-20T06:05:34;30.13;;;15.23;;
5762;SDS011;2906;53.282;9.508;2022-11-20T06:06:37;32.00;;;14.70;;
5762;SDS011;2906;53.282;9.508;2022-11-20T06:07:38;31.08;;;15.68;;
5762;SDS011;2906;53.282;9.508;2022-11-20T06:08:41;33.83;;;15.63;;
5762;SDS011;2906;53.282;9.508;2022-11-20T06:09:42;28.52;;;14.48;;
5762;SDS011;2906;53.282;9.508;2022-11-20T06:10:44;32.47;;;15.55;;
5762;SDS011;2906;53.282;9.508;2022-11-20T06:11:46;34.58;;;15.25;;
5762;SDS011;2906;53.282;9.508;2022-11-20T06:12:48;30.40;;;15.63;;
5762;SDS011;2906;53.282;9.508;2022-11-20T06:13:49;29.45;;;14.25;;
5762;SDS011;2906;53.282;9.508;2022-11-20T06:14:52;32.58;;;14.50;;
5762;SDS011;2906;53.282;9.508;2022-11-20T06:15:54;32.33;;;14.82;;
5762;SDS011;2906;53.282;9.508;2022-11-20T06:16:56;30.70;;;15.73;;
5762;SDS011;2906;53.282;9.508;2022-11-20T06:17:59;31.92;;;14.98;;
5762;SDS011;2906;53.282;9.508;2022-11-20T06:19:01;38.35;;;15.40;;
5762;SDS011;2906;53.282;9.508;2022-11-20T06:20:02;28.77;;;15.10;;
5762;SDS011;2906;53.282;9.508;2022-11-20T06:21:06;32.28;;;15.60;;